Time;durP1;ratioP1;P1;durP2;ratioP2;P2;SDS_P1;SDS_P2;PMS_P1;PMS_P2;Temp;Humidity;BMP_temperature;BMP_pressure;BME280_temperature;BME280_humidity;BME280_pressure;Samples;Min_cycle;Max_cycle;Signal;HPM_P1;HPM_P2
2022/09/16 00:02:09;;;;;;;7.07;4.03;;;;;;;;;;5072733;28;20432;-64
2022/09/16 00:04:36;;;;;;;6.80;4.47;;;;;;;;;;5072207;28;20511;-63
2022/09/16 00:07:04;;;;;;;4.73;4.17;;;;;;;;;;5072829;28;20436;-64
2022/09/16 00:09:33;;;;;;;7.80;4.40;;;;;;;;;;5072311;28;20511;-64
2022/09/16 00:12:01;;;;;;;4.60;3.90;;;;;;;;;;5072554;28;20498;-64
2022/09/16 00:14:28;;;;;;;7.70;4.93;;;;;;;;;;5071902;28;20449;-64
2022/09/16 00:16:56;;;;;;;6.00;4.83;;;;;;;;;;5072615;28;20436;-64
2022/09/16 00:19:23;;;;;;;8.77;4.50;;;;;;;;;;5071932;28;20439;-64
2022/09/16 00:21:51;;;;;;;6.20;5.50;;;;;;;;;;5072680;28;20513;-65
2022/09/16 00:24:18;;;;;;;6.17;5.00;;;;;;;;;;5071954;28;20816;-64
2022/09/16 00:26:47;;;;;;;5.37;4.10;;;;;;;;;;5072551;28;20527;-64
2022/09/16 00:29:14;;;;;;;6.90;4.40;;;;;;;;;;5071835;28;20497;-64
2022/09/16 00:31:42;;;;;;;10.50;4.50;;;;;;;;;;5072417;28;20444;-63
2022/09/16 00:34:09;;;;;;;6.90;4.60;;;;;;;;;;5072440;28;20456;-63
2022/09/16 00:36:37;;;;;;;5.73;4.80;;;;;;;;;;5071777;28;20463;-64
2022/09/16 00:39:04;;;;;;;6.80;4.90;;;;;;;;;;5072269;28;20526;-64
2022/09/16 00:41:32;;;;;;;6.00;4.70;;;;;;;;;;5070659;28;20515;-65
2022/09/16 00:44:02;;;;;;;6.23;4.70;;;;;;;;;;5072309;28;20466;-64
2022/09/16 00:46:36;;;;;;;8.40;5.10;;;;;;;;;;5072454;28;20490;-63
2022/09/16 00:49:07;;;;;;;6.07;4.10;;;;;;;;;;5072107;28;20439;-64
2022/09/16 00:51:34;;;;;;;7.40;4.93;;;;;;;;;;5072177;28;20800;-64
2022/09/16 00:54:04;;;;;;;4.57;4.03;;;;;;;;;;5072095;28;20472;-63
2022/09/16 00:56:35;;;;;;;5.87;5.07;;;;;;;;;;5071749;28;20494;-63
2022/09/16 00:59:07;;;;;;;7.23;4.80;;;;;;;;;;5071900;28;20533;-63
2022/09/16 01:01:36;;;;;;;7.93;4.57;;;;;;;;;;5072149;28;20440;-63
2022/09/16 01:04:05;;;;;;;7.40;4.23;;;;;;;;;;5071855;28;20524;-63
2022/09/16 01:06:38;;;;;;;5.67;4.20;;;15.40;93.60;;;;;;5072183;28;20494;-64
2022/09/16 01:09:08;;;;;;;5.30;4.30;;;15.30;93.60;;;;;;5071558;28;20440;-64
2022/09/16 01:11:35;;;;;;;5.60;4.20;;;15.20;93.90;;;;;;5072117;28;20436;-63
2022/09/16 01:16:57;;;;;;;7.57;4.20;;;15.20;94.00;;;;;;5038397;28;20412;-63
2022/09/16 01:19:42;;;;;;;6.23;4.80;;;15.30;94.10;;;;;;5072121;28;20801;-63
2022/09/16 01:22:21;;;;;;;6.90;3.80;;;15.30;94.20;;;;;;5072291;28;20455;-64
2022/09/16 01:25:00;;;;;;;6.60;4.20;;;15.30;94.00;;;;;;5071531;28;20440;-63
2022/09/16 01:27:41;;;;;;;5.90;4.73;;;15.30;93.90;;;;;;5072138;28;20507;-63
2022/09/16 01:30:46;;;;;;;5.87;4.77;;;15.30;94.00;;;;;;5051925;28;20447;-64
2022/09/16 01:33:24;;;;;;;8.43;4.77;;;15.30;94.20;;;;;;5059226;28;20514;-64
2022/09/16 01:36:06;;;;;;;5.27;4.60;;;15.20;94.30;;;;;;5071818;28;20806;-63
2022/09/16 01:38:51;;;;;;;5.83;4.53;;;15.20;94.50;;;;;;5071389;28;20530;-63
2022/09/16 01:41:28;;;;;;;6.07;5.47;;;15.20;94.40;;;;;;5051942;28;20436;-64
2022/09/16 01:44:01;;;;;;;8.30;4.67;;;15.10;94.70;;;;;;5063774;28;20436;-64
2022/09/16 01:46:37;;;;;;;7.93;5.70;;;15.00;94.80;;;;;;5071403;28;20437;-64
2022/09/16 01:49:16;;;;;;;6.47;4.70;;;15.00;95.00;;;;;;5071582;28;20493;-64
2022/09/16 01:51:49;;;;;;;8.63;4.83;;;15.00;95.50;;;;;;5071353;28;20432;-63
2022/09/16 01:54:22;;;;;;;6.87;4.90;;;15.00;95.40;;;;;;5071529;28;20882;-63
2022/09/16 01:56:58;;;;;;;6.10;4.73;;;14.90;95.40;;;;;;5069872;28;20436;-64
2022/09/16 01:59:34;;;;;;;5.30;4.43;;;15.00;95.30;;;;;;5071552;28;20451;-64
2022/09/16 02:02:07;;;;;;;6.60;4.23;;;15.00;95.20;;;;;;5071193;28;20792;-64
2022/09/16 02:04:41;;;;;;;5.57;4.43;;;15.10;94.90;;;;;;5071330;28;20416;-64
2022/09/16 02:07:11;;;;;;;4.70;3.93;;;15.10;94.70;;;;;;5070550;28;20440;-64
2022/09/16 02:09:42;;;;;;;7.30;5.10;;;15.00;94.70;;;;;;5074776;28;20448;-64
2022/09/16 02:12:14;;;;;;;6.33;4.67;;;15.00;94.90;;;;;;5074468;28;20530;-63
2022/09/16 02:14:49;;;;;;;6.97;4.47;;;15.20;95.10;;;;;;5075079;28;20557;-64
2022/09/16 02:17:19;;;;;;;5.83;4.03;;;15.20;95.20;;;;;;5074477;28;20436;-64
2022/09/16 02:19:52;;;;;;;4.93;3.60;;;15.30;95.30;;;;;;5074919;28;20528;-64
2022/09/16 02:22:25;;;;;;;8.13;4.70;;;15.30;95.50;;;;;;5074333;28;20436;-64
2022/09/16 02:24:53;;;;;;;8.43;4.20;;;15.30;95.40;;;;;;5074701;28;20493;-64
2022/09/16 02:27:22;;;;;;;6.73;4.50;;;15.40;95.50;;;;;;5074437;28;20443;-64
2022/09/16 02:29:54;;;;;;;5.70;3.73;;;15.40;95.50;;;;;;5073317;28;20475;-68
2022/09/16 02:32:24;;;;;;;8.10;4.17;;;15.40;95.50;;;;;;5074480;28;20949;-64
2022/09/16 02:34:53;;;;;;;4.93;4.00;;;15.50;95.40;;;;;;5073602;28;20436;-64
2022/09/16 02:37:24;;;;;;;5.77;4.10;;;15.50;95.30;;;;;;5074296;28;20476;-68
2022/09/16 02:39:56;;;;;;;5.40;4.40;;;15.50;95.30;;;;;;5074008;28;20444;-65
2022/09/16 02:42:23;;;;;;;7.07;4.10;;;15.50;95.10;;;;;;5074653;28;20440;-64
2022/09/16 02:44:51;;;;;;;6.40;4.73;;;15.60;95.20;;;;;;5073930;28;20808;-64
2022/09/16 02:47:29;;;;;;;6.87;5.10;;;15.60;95.20;;;;;;5074476;28;20432;-63
2022/09/16 02:50:01;;;;;;;5.17;4.30;;;15.60;95.20;;;;;;5074041;28;20440;-66
2022/09/16 02:52:36;;;;;;;6.57;4.50;;;15.60;95.50;;;;;;5074312;28;20440;-64
2022/09/16 02:55:13;;;;;;;5.97;4.50;;;15.60;95.70;;;;;;5073441;28;20446;-63
2022/09/16 02:57:40;;;;;;;5.17;3.70;;;15.60;95.70;;;;;;5073998;28;20432;-63
2022/09/16 03:00:08;;;;;;;6.07;4.30;;;15.60;95.80;;;;;;5073902;28;20494;-64
2022/09/16 03:02:36;;;;;;;5.03;4.00;;;15.60;95.60;;;;;;5071678;28;20443;-63
2022/09/16 03:05:08;;;;;;;5.70;4.20;;;15.60;95.60;;;;;;5073655;28;20432;-63
2022/09/16 03:07:36;;;;;;;6.23;4.40;;;15.60;95.60;;;;;;5073927;28;20950;-64
2022/09/16 03:10:04;;;;;;;6.30;4.07;;;15.70;95.50;;;;;;5070682;28;20432;-64
2022/09/16 03:12:45;;;;;;;6.90;4.27;;;15.70;95.50;;;;;;5073666;28;20436;-64
2022/09/16 03:15:35;;;;;;;6.77;4.10;;;15.70;95.40;;;;;;5073386;28;20942;-64
2022/09/16 03:18:45;;;;;;;8.03;5.33;;;15.70;95.30;;;;;;5073793;28;20442;-63
2022/09/16 03:21:18;;;;;;;6.73;4.37;;;15.60;95.00;;;;;;5030936;28;21029;-64
2022/09/16 03:23:56;;;;;;;6.90;4.80;;;15.60;95.10;;;;;;5068942;28;20534;-64
2022/09/16 03:26:33;;;;;;;6.10;4.40;;;15.60;95.00;;;;;;5073171;28;20943;-64
2022/09/16 03:29:11;;;;;;;7.63;4.50;;;15.60;94.80;;;;;;5073511;28;20432;-64
2022/09/16 03:31:47;;;;;;;4.60;3.83;;;15.50;95.00;;;;;;5073269;28;20476;-63
2022/09/16 03:34:20;;;;;;;5.40;4.43;;;15.50;95.00;;;;;;5073486;28;20479;-63
2022/09/16 03:36:54;;;;;;;5.40;4.30;;;15.50;95.00;;;;;;5072969;28;20538;-64
2022/09/16 03:39:22;;;;;;;11.27;4.90;;;15.50;95.10;;;;;;5073082;28;20444;-64
2022/09/16 03:41:51;;;;;;;7.30;5.20;;;15.50;95.20;;;;;;5072423;28;20441;-64
2022/09/16 03:44:18;;;;;;;5.87;4.33;;;15.50;94.80;;;;;;5073182;28;20458;-64
2022/09/16 03:46:45;;;;;;;10.80;5.63;;;15.40;94.90;;;;;;5072657;28;20923;-63
2022/09/16 03:49:13;;;;;;;6.10;4.57;;;15.40;94.80;;;;;;5073007;28;20941;-63
2022/09/16 03:51:40;;;;;;;5.53;4.30;;;15.40;94.80;;;;;;5072719;28;20448;-64
2022/09/16 03:54:09;;;;;;;4.93;4.40;;;15.40;94.80;;;;;;5072820;28;20480;-64
2022/09/16 03:56:36;;;;;;;7.87;5.10;;;15.40;94.80;;;;;;5072418;28;20442;-63
2022/09/16 03:59:03;;;;;;;7.87;5.10;;;15.30;95.00;;;;;;5072855;28;20435;-63
2022/09/16 04:01:31;;;;;;;6.33;4.40;;;15.40;95.10;;;;;;5072663;28;20444;-63
2022/09/16 04:03:58;;;;;;;5.60;4.80;;;15.40;95.20;;;;;;5073396;28;20452;-64
2022/09/16 04:06:25;;;;;;;9.57;5.50;;;15.40;95.30;;;;;;5072392;28;20436;-65
2022/09/16 04:08:52;;;;;;;7.87;4.77;;;15.40;95.30;;;;;;5072885;28;20448;-66
2022/09/16 04:11:21;;;;;;;7.60;5.23;;;15.50;95.30;;;;;;5072885;28;21157;-65
2022/09/16 04:13:48;;;;;;;6.93;5.10;;;15.50;95.20;;;;;;5072928;28;20484;-64
2022/09/16 04:16:21;;;;;;;7.17;5.10;;;15.50;95.20;;;;;;5072352;28;20545;-64
2022/09/16 04:18:48;;;;;;;5.63;4.63;;;15.50;95.10;;;;;;5073033;28;20436;-64
2022/09/16 04:21:17;;;;;;;5.43;4.93;;;15.50;94.80;;;;;;5072735;28;20466;-63
2022/09/16 04:23:44;;;;;;;7.37;6.00;;;15.60;94.70;;;;;;5072274;28;20468;-64
2022/09/16 04:26:12;;;;;;;6.33;5.20;;;15.60;94.50;;;;;;5072702;28;20468;-64
2022/09/16 04:28:40;;;;;;;8.20;5.50;;;15.60;94.10;;;;;;5072439;28;20427;-64
2022/09/16 04:31:11;;;;;;;6.80;5.77;;;15.50;93.80;;;;;;5072215;28;20436;-64
2022/09/16 04:33:39;;;;;;;6.40;4.80;;;15.50;93.70;;;;;;5072259;28;20475;-64
2022/09/16 04:36:09;;;;;;;6.60;5.00;;;15.40;93.70;;;;;;5072507;28;20958;-64
2022/09/16 04:38:37;;;;;;;5.87;4.60;;;15.40;93.80;;;;;;5072322;28;20440;-67
2022/09/16 04:41:09;;;;;;;6.13;4.93;;;15.30;93.90;;;;;;5072630;28;20436;-64
2022/09/16 04:43:43;;;;;;;6.53;5.13;;;15.30;94.40;;;;;;5070973;28;20436;-63
2022/09/16 04:46:12;;;;;;;8.30;6.07;;;15.40;93.90;;;;;;5071865;28;20938;-65
2022/09/16 04:48:40;;;;;;;7.83;5.40;;;15.30;94.00;;;;;;5072139;28;20435;-64
2022/09/16 04:51:09;;;;;;;8.43;5.47;;;15.30;93.90;;;;;;5071577;28;20787;-64
2022/09/16 04:53:37;;;;;;;7.80;6.30;;;15.30;94.00;;;;;;5072199;28;20484;-65
2022/09/16 04:56:07;;;;;;;8.70;6.33;;;15.20;94.20;;;;;;5068227;28;20468;-64
2022/09/16 04:58:34;;;;;;;11.40;5.03;;;15.20;94.10;;;;;;5070693;28;20501;-64
2022/09/16 05:01:11;;;;;;;6.03;4.47;;;15.30;94.30;;;;;;5070044;28;20615;-64
2022/09/16 05:03:39;;;;;;;6.10;4.83;;;15.20;94.50;;;;;;5070002;28;20439;-64
2022/09/16 05:06:09;;;;;;;6.23;5.50;;;15.20;94.60;;;;;;5070491;28;20443;-64
2022/09/16 05:08:37;;;;;;;6.47;5.27;;;15.30;94.70;;;;;;5070580;28;20481;-64
2022/09/16 05:11:06;;;;;;;6.97;5.37;;;15.20;94.40;;;;;;5067083;28;20866;-64
2022/09/16 05:13:34;;;;;;;6.07;5.40;;;15.30;94.50;;;;;;5070508;28;20475;-64
2022/09/16 05:16:07;;;;;;;6.67;5.97;;;15.30;94.70;;;;;;5069395;28;20456;-64
2022/09/16 05:18:41;;;;;;;9.33;6.60;;;15.30;94.90;;;;;;5069804;28;20440;-64
2022/09/16 05:21:12;;;;;;;6.40;5.50;;;15.40;94.70;;;;;;5070038;28;20440;-64
2022/09/16 05:23:40;;;;;;;7.10;5.80;;;15.30;94.40;;;;;;5070368;28;20892;-64
2022/09/16 05:26:11;;;;;;;10.53;6.43;;;15.40;94.70;;;;;;5065842;28;20436;-64
2022/09/16 05:28:38;;;;;;;6.70;5.80;;;15.40;94.80;;;;;;5070667;28;20519;-64
2022/09/16 05:31:12;;;;;;;7.40;5.30;;;15.40;94.60;;;;;;5070010;28;20440;-64
2022/09/16 05:33:41;;;;;;;8.00;6.27;;;15.50;94.70;;;;;;5066668;28;20483;-64
2022/09/16 05:36:09;;;;;;;7.30;5.13;;;15.50;94.80;;;;;;5069923;28;20468;-64
2022/09/16 05:38:37;;;;;;;6.70;5.60;;;15.60;94.90;;;;;;5070260;28;20471;-65
2022/09/16 05:41:05;;;;;;;8.30;6.30;;;15.60;94.90;;;;;;5069891;28;20439;-64
2022/09/16 05:43:34;;;;;;;8.93;5.60;;;15.60;94.90;;;;;;5074039;28;20443;-64
2022/09/16 05:46:01;;;;;;;11.87;5.30;;;15.70;94.70;;;;;;5073720;28;20497;-64
2022/09/16 05:48:31;;;;;;;8.67;5.20;;;15.70;94.30;;;;;;5074040;28;20432;-64
2022/09/16 05:51:04;;;;;;;5.77;5.13;;;15.70;94.30;;;;;;5073721;28;20436;-64
2022/09/16 05:53:33;;;;;;;8.10;5.80;;;15.70;94.30;;;;;;5073336;28;20830;-64
2022/09/16 05:56:01;;;;;;;7.93;5.43;;;15.70;94.40;;;;;;5072849;28;20504;-64
2022/09/16 05:58:29;;;;;;;9.83;5.33;;;15.70;94.50;;;;;;5072041;28;20432;-64
2022/09/16 06:00:59;;;;;;;9.80;5.93;;;15.80;94.70;;;;;;5074093;28;20443;-64
2022/09/16 06:03:34;;;;;;;5.97;4.90;;;15.80;94.60;;;;;;5065877;28;20493;-67
2022/09/16 06:06:23;;;;;;;8.27;5.50;;;15.90;94.70;;;;;;5068619;28;20532;-64
2022/09/16 06:08:56;;;;;;;7.90;5.53;;;16.00;94.70;;;;;;5068953;28;20462;-66
2022/09/16 06:11:24;;;;;;;6.93;5.63;;;16.00;94.60;;;;;;5074064;28;20501;-65
2022/09/16 06:14:00;;;;;;;10.23;5.50;;;16.00;94.60;;;;;;5073419;28;20514;-65
2022/09/16 06:16:31;;;;;;;8.83;5.43;;;16.10;94.50;;;;;;5070612;28;20506;-64
2022/09/16 06:19:01;;;;;;;5.63;4.57;;;16.10;94.60;;;;;;5073133;28;20522;-64
2022/09/16 06:21:30;;;;;;;8.27;4.27;;;16.10;94.60;;;;;;5073137;28;20472;-64
2022/09/16 06:24:07;;;;;;;7.10;5.00;;;16.10;94.60;;;;;;5072712;28;20480;-64
2022/09/16 06:26:35;;;;;;;6.27;4.47;;;16.10;94.10;;;;;;5072759;28;20759;-65
2022/09/16 06:29:02;;;;;;;6.53;4.40;;;16.10;94.10;;;;;;5072962;28;20860;-64
2022/09/16 06:31:30;;;;;;;6.00;4.53;;;16.10;94.20;;;;;;5072793;28;21742;-64
2022/09/16 06:33:58;;;;;;;7.07;4.83;;;16.10;94.40;;;;;;5072527;28;20472;-65
2022/09/16 06:36:29;;;;;;;5.90;4.40;;;16.20;94.50;;;;;;5072433;28;20499;-65
2022/09/16 06:38:58;;;;;;;6.83;4.43;;;16.20;94.50;;;;;;5070368;28;20991;-65
2022/09/16 06:41:26;;;;;;;5.80;3.97;;;16.30;94.40;;;;;;5073306;28;20522;-64
2022/09/16 06:43:53;;;;;;;8.87;4.57;;;16.30;94.10;;;;;;5072630;28;20440;-64
2022/09/16 06:46:21;;;;;;;5.77;3.30;;;16.30;94.20;;;;;;5073682;28;20501;-65
2022/09/16 06:48:50;;;;;;;5.03;3.30;;;16.30;94.20;;;;;;5073870;28;20490;-64
2022/09/16 06:51:21;;;;;;;8.70;4.90;;;16.40;94.30;;;;;;5073118;28;20536;-64
2022/09/16 06:53:50;;;;;;;6.03;3.90;;;16.40;94.40;;;;;;5072521;28;20507;-64
2022/09/16 06:56:19;;;;;;;6.07;3.50;;;16.40;94.20;;;;;;5073538;28;20758;-64
2022/09/16 06:58:48;;;;;;;5.40;4.00;;;16.40;94.40;;;;;;5073327;28;20523;-64
2022/09/16 07:01:16;;;;;;;5.40;4.20;;;16.40;94.40;;;;;;5069310;28;20522;-64
2022/09/16 07:03:46;;;;;;;5.50;4.80;;;16.50;94.40;;;;;;5073333;28;21735;-63
2022/09/16 07:06:14;;;;;;;6.20;5.03;;;16.50;94.30;;;;;;5073310;28;20523;-65
2022/09/16 07:08:43;;;;;;;7.43;4.20;;;16.60;94.40;;;;;;5072429;28;20440;-64
2022/09/16 07:11:14;;;;;;;6.97;4.50;;;16.60;94.60;;;;;;5072940;28;20440;-64
2022/09/16 07:13:42;;;;;;;7.37;4.97;;;16.70;94.80;;;;;;5073125;28;20519;-64
2022/09/16 07:16:10;;;;;;;7.77;4.40;;;16.80;94.70;;;;;;5072622;28;20490;-64
2022/09/16 07:18:38;;;;;;;4.63;3.83;;;16.80;94.10;;;;;;5072844;28;20451;-64
2022/09/16 07:21:06;;;;;;;6.30;4.67;;;16.80;94.00;;;;;;5073039;28;20527;-64
2022/09/16 07:23:37;;;;;;;6.07;4.80;;;16.90;93.60;;;;;;5072037;28;20518;-64
2022/09/16 07:26:06;;;;;;;7.40;4.83;;;16.90;93.60;;;;;;5069309;28;20546;-64
2022/09/16 07:28:36;;;;;;;7.33;4.67;;;16.90;93.40;;;;;;5072252;28;20436;-65
2022/09/16 07:31:04;;;;;;;6.47;4.67;;;17.00;93.50;;;;;;5072421;28;20959;-65
2022/09/16 07:33:32;;;;;;;8.77;5.40;;;17.10;93.50;;;;;;5068427;28;21187;-64
2022/09/16 07:36:00;;;;;;;6.17;4.43;;;17.20;93.60;;;;;;5072094;28;20541;-64
2022/09/16 07:38:27;;;;;;;6.53;4.80;;;17.30;93.50;;;;;;5072599;28;20464;-64
2022/09/16 07:41:04;;;;;;;7.73;5.00;;;17.40;93.50;;;;;;5072190;28;20476;-65
2022/09/16 07:43:32;;;;;;;5.90;4.27;;;17.60;93.30;;;;;;5072300;28;20447;-64
2022/09/16 07:46:00;;;;;;;8.40;5.03;;;17.80;93.20;;;;;;5072527;28;20498;-66
2022/09/16 07:48:29;;;;;;;5.03;3.70;;;18.10;92.50;;;;;;5067837;28;20521;-65
2022/09/16 07:50:58;;;;;;;5.50;4.20;;;18.40;91.60;;;;;;5072283;28;20448;-64
2022/09/16 07:53:26;;;;;;;8.43;4.37;;;18.80;91.00;;;;;;5072202;28;20450;-64
2022/09/16 07:55:53;;;;;;;4.80;4.30;;;19.40;87.30;;;;;;5071533;28;20534;-64
2022/09/16 07:58:20;;;;;;;5.67;3.97;;;20.00;85.70;;;;;;5072128;28;20935;-64
2022/09/16 08:00:49;;;;;;;3.77;3.30;;;20.50;81.90;;;;;;5072236;28;20933;-64
2022/09/16 08:03:17;;;;;;;7.27;5.10;;;22.00;85.20;;;;;;5071908;28;20868;-65
2022/09/16 08:05:46;;;;;;;6.40;3.70;;;24.40;77.50;;;;;;5071047;28;20439;-64
2022/09/16 08:08:13;;;;;;;6.67;4.27;;;25.10;66.80;;;;;;5071994;28;20487;-64
2022/09/16 08:10:42;;;;;;;5.10;3.83;;;25.30;62.40;;;;;;5071738;28;20539;-65
2022/09/16 08:13:09;;;;;;;5.03;3.50;;;25.10;58.70;;;;;;5071676;28;20432;-64
2022/09/16 08:15:36;;;;;;;9.03;3.50;;;24.80;57.70;;;;;;5071668;28;20646;-64
2022/09/16 08:18:04;;;;;;;4.73;3.37;;;24.60;57.60;;;;;;5069910;28;20480;-64
2022/09/16 08:20:32;;;;;;;4.00;3.17;;;24.50;57.70;;;;;;5069787;28;20523;-65
2022/09/16 08:22:59;;;;;;;4.83;3.53;;;24.80;60.70;;;;;;5069987;28;20527;-64
2022/09/16 08:25:26;;;;;;;4.70;3.30;;;25.20;58.80;;;;;;5070512;28;20602;-65
2022/09/16 08:27:53;;;;;;;5.07;3.03;;;25.50;57.50;;;;;;5070394;28;20525;-64
2022/09/16 08:30:25;;;;;;;4.50;2.93;;;25.90;57.00;;;;;;5070049;28;20467;-65
2022/09/16 08:32:56;;;;;;;4.93;3.13;;;25.80;54.40;;;;;;5069393;28;20926;-66
2022/09/16 08:35:23;;;;;;;5.50;3.43;;;25.40;54.50;;;;;;5069967;28;20480;-66
2022/09/16 08:37:51;;;;;;;6.37;3.57;;;25.00;54.50;;;;;;5070294;28;20538;-66
2022/09/16 08:40:22;;;;;;;5.30;3.37;;;24.70;55.10;;;;;;5068497;28;20468;-64
2022/09/16 08:43:03;;;;;;;5.03;3.20;;;24.40;55.90;;;;;;5068381;28;20448;-64
2022/09/16 08:45:38;;;;;;;7.50;3.17;;;23.90;56.70;;;;;;5069940;28;20526;-64
2022/09/16 08:48:19;;;;;;;4.30;2.90;;;23.50;57.60;;;;;;5067919;28;20439;-64
2022/09/16 08:50:48;;;;;;;4.50;3.07;;;23.10;57.60;;;;;;5069619;28;20544;-64
2022/09/16 08:53:23;;;;;;;6.20;3.60;;;22.80;57.20;;;;;;5069261;28;20472;-64
2022/09/16 08:55:52;;;;;;;4.23;2.73;;;22.50;57.00;;;;;;5068668;28;20566;-65
2022/09/16 08:58:21;;;;;;;4.50;3.73;;;22.20;57.80;;;;;;5069216;28;20526;-65
2022/09/16 09:00:54;;;;;;;5.60;3.00;;;22.00;58.30;;;;;;5068847;28;20526;-64
2022/09/16 09:03:33;;;;;;;4.10;2.77;;;21.70;58.80;;;;;;5069021;28;20440;-64
2022/09/16 09:06:02;;;;;;;7.13;3.83;;;21.50;60.20;;;;;;5069363;28;20530;-65
2022/09/16 09:08:49;;;;;;;7.57;3.43;;;21.30;61.40;;;;;;5069203;28;20443;-64
2022/09/16 09:11:25;;;;;;;4.30;3.80;;;21.10;63.90;;;;;;5068502;28;20440;-64
2022/09/16 09:14:02;;;;;;;5.00;3.70;;;21.00;65.30;;;;;;5069386;28;20530;-64
2022/09/16 09:16:39;;;;;;;5.43;3.60;;;20.90;66.60;;;;;;5069373;28;20515;-65
2022/09/16 09:19:23;;;;;;;5.20;3.87;;;20.70;67.80;;;;;;5073653;28;20475;-64
2022/09/16 09:22:03;;;;;;;7.63;3.80;;;20.60;68.40;;;;;;5073199;28;20526;-65
2022/09/16 09:24:52;;;;;;;4.50;3.57;;;20.50;69.10;;;;;;5074045;28;20960;-65
2022/09/16 09:27:27;;;;;;;6.73;3.90;;;20.30;69.20;;;;;;5072686;28;20530;-64
2022/09/16 09:30:13;;;;;;;5.10;4.23;;;20.10;70.50;;;;;;5073313;28;20446;-64
2022/09/16 09:32:55;;;;;;;6.77;4.73;;;20.00;72.30;;;;;;5073371;28;20470;-64
2022/09/16 09:35:36;;;;;;;6.20;4.40;;;19.90;73.40;;;;;;5072539;28;21104;-64
2022/09/16 09:38:31;;;;;;;7.33;4.93;;;19.80;75.40;;;;;;5072882;28;20526;-64
2022/09/16 09:41:07;;;;;;;7.57;5.13;;;19.70;77.10;;;;;;5072197;28;20448;-64
2022/09/16 09:43:39;;;;;;;5.43;4.33;;;19.60;78.30;;;;;;5073007;28;20443;-64
2022/09/16 09:46:12;;;;;;;6.63;4.80;;;19.60;78.10;;;;;;5072871;28;20462;-63
2022/09/16 09:48:44;;;;;;;5.53;4.53;;;19.60;79.60;;;;;;5073562;28;20529;-64
2022/09/16 09:51:26;;;;;;;5.47;4.97;;;19.60;79.80;;;;;;5071077;28;20482;-64
2022/09/16 09:53:58;;;;;;;5.80;4.17;;;19.50;79.60;;;;;;5072794;28;20453;-66
2022/09/16 09:56:31;;;;;;;6.87;5.10;;;19.40;79.60;;;;;;5072987;28;20833;-64
2022/09/16 09:59:04;;;;;;;9.50;4.70;;;19.40;79.50;;;;;;5073344;28;20537;-63
2022/09/16 10:01:32;;;;;;;6.90;4.93;;;19.30;79.60;;;;;;5073092;28;20508;-64
2022/09/16 10:04:08;;;;;;;6.70;4.43;;;19.30;80.40;;;;;;5071295;28;20430;-65
2022/09/16 10:06:35;;;;;;;6.40;4.73;;;19.20;81.30;;;;;;5073192;28;20496;-64
2022/09/16 10:09:02;;;;;;;9.13;6.70;;;19.10;81.60;;;;;;5071259;28;20466;-64
2022/09/16 10:11:32;;;;;;;6.23;4.63;;;19.00;81.70;;;;;;5072916;28;20495;-64
2022/09/16 10:14:04;;;;;;;9.10;6.30;;;18.90;82.60;;;;;;5073994;28;20443;-64
2022/09/16 10:16:35;;;;;;;7.33;5.00;;;18.90;84.00;;;;;;5073633;28;20482;-65
2022/09/16 10:19:06;;;;;;;6.60;5.93;;;18.90;84.90;;;;;;5073960;28;20804;-63
2022/09/16 10:21:46;;;;;;;6.60;5.03;;;18.80;85.50;;;;;;5071962;28;20553;-64
2022/09/16 10:24:30;;;;;;;7.50;5.47;;;18.80;85.90;;;;;;5068957;28;20492;-65
2022/09/16 10:27:00;;;;;;;7.40;5.23;;;18.80;86.10;;;;;;5066366;28;20432;-66
2022/09/16 10:29:28;;;;;;;7.17;4.67;;;18.90;87.90;;;;;;5072022;28;20438;-64
2022/09/16 10:31:58;;;;;;;5.83;5.23;;;19.50;90.60;;;;;;5061549;28;20440;-66
2022/09/16 10:34:32;;;;;;;4.30;3.30;;;21.60;94.20;;;;;;5066851;28;20464;-64
2022/09/16 10:37:01;;;;;;;7.00;4.40;;;25.10;87.50;;;;;;5069175;28;20498;-65
2022/09/16 10:39:30;;;;;;;5.17;4.03;;;28.40;73.20;;;;;;5070169;28;20432;-65
2022/09/16 10:41:59;;;;;;;4.53;3.53;;;31.80;61.60;;;;;;5072181;28;20432;-65
2022/09/16 10:44:29;;;;;;;4.23;2.97;;;35.40;52.00;;;;;;5068866;28;20502;-63
2022/09/16 10:47:01;;;;;;;4.90;3.20;;;37.40;38.10;;;;;;5070803;28;20945;-63
2022/09/16 10:49:34;;;;;;;5.30;3.33;;;36.50;34.40;;;;;;5068600;28;20436;-63
2022/09/16 10:52:14;;;;;;;3.83;2.87;;;37.00;38.90;;;;;;5072168;28;20505;-63
2022/09/16 10:54:41;;;;;;;3.50;3.10;;;39.40;31.30;;;;;;5068050;28;20440;-63
2022/09/16 10:57:24;;;;;;;4.50;3.37;;;39.90;30.70;;;;;;5070268;28;20821;-63
2022/09/16 11:00:00;;;;;;;4.30;3.57;;;41.70;28.10;;;;;;5062561;28;20527;-63
2022/09/16 11:02:58;;;;;;;4.40;3.50;;;41.70;25.70;;;;;;5068555;28;20444;-63
2022/09/16 11:05:32;;;;;;;4.20;3.03;;;41.00;24.90;;;;;;5071163;28;20521;-64
2022/09/16 11:08:09;;;;;;;3.67;3.13;;;40.40;25.30;;;;;;5072061;28;20493;-63
2022/09/16 11:10:44;;;;;;;4.47;2.77;;;39.50;25.10;;;;;;5071511;28;20447;-64
2022/09/16 11:13:44;;;;;;;4.50;2.73;;;39.00;27.30;;;;;;5068865;28;20444;-63
2022/09/16 11:16:42;;;;;;;5.30;3.33;;;41.40;24.60;;;;;;5048424;28;20494;-64
2022/09/16 11:19:16;;;;;;;3.97;3.47;;;40.10;22.60;;;;;;5072499;28;20493;-62
2022/09/16 11:21:59;;;;;;;4.30;2.90;;;37.70;23.40;;;;;;5067970;28;20436;-62
2022/09/16 11:24:59;;;;;;;3.87;2.97;;;37.50;27.10;;;;;;5068422;28;20428;-64
2022/09/16 11:27:41;;;;;;;5.33;2.97;;;38.60;25.20;;;;;;5069734;28;20931;-62
2022/09/16 11:30:14;;;;;;;3.80;3.20;;;36.90;24.60;;;;;;5071505;28;20472;-63
2022/09/16 11:33:03;;;;;;;5.07;3.10;;;35.80;27.00;;;;;;5066461;28;21531;-63
2022/09/16 11:35:40;;;;;;;4.33;3.20;;;36.70;26.60;;;;;;5069482;28;20512;-63
2022/09/16 11:38:20;;;;;;;5.70;3.13;;;37.50;28.10;;;;;;5073819;28;20523;-65
2022/09/16 11:40:52;;;;;;;4.37;2.87;;;38.70;25.60;;;;;;5074140;28;20529;-62
2022/09/16 11:43:43;;;;;;;3.43;2.33;;;38.80;24.20;;;;;;5073846;28;20428;-62
2022/09/16 11:46:19;;;;;;;6.27;5.13;;;38.40;26.50;;;;;;5074246;28;20519;-63
2022/09/16 11:49:02;;;;;;;5.37;3.80;;;40.30;25.80;;;;;;5074293;28;20448;-63
2022/09/16 11:51:41;;;;;;;4.90;2.80;;;42.80;24.30;;;;;;5074088;28;20511;-63
2022/09/16 11:54:27;;;;;;;5.03;3.47;;;43.70;21.40;;;;;;5073938;28;20431;-63
2022/09/16 11:56:59;;;;;;;4.50;3.37;;;41.80;20.50;;;;;;5073835;28;20521;-63
2022/09/16 11:59:30;;;;;;;4.70;3.50;;;40.20;20.40;;;;;;5073819;28;20515;-63
2022/09/16 12:02:07;;;;;;;3.57;2.13;;;37.80;21.40;;;;;;5073589;28;20519;-63
2022/09/16 12:04:41;;;;;;;2.90;1.73;;;35.60;23.40;;;;;;5073660;28;20824;-62
2022/09/16 12:07:14;;;;;;;2.60;1.40;;;33.60;24.70;;;;;;5073845;28;20463;-62
2022/09/16 12:09:45;;;;;;;3.70;1.60;;;31.70;26.40;;;;;;5073432;28;20474;-62
2022/09/16 12:12:15;;;;;;;2.60;1.60;;;30.10;28.60;;;;;;5073528;28;20518;-62
2022/09/16 12:14:47;;;;;;;3.53;1.70;;;28.70;30.20;;;;;;5073725;28;20436;-63
2022/09/16 12:17:20;;;;;;;3.03;1.70;;;27.40;31.60;;;;;;5073630;28;20490;-62
2022/09/16 12:19:52;;;;;;;2.63;1.70;;;26.50;34.00;;;;;;5073604;28;20474;-62
2022/09/16 12:22:23;;;;;;;3.93;1.77;;;25.90;35.50;;;;;;5073679;28;20470;-62
2022/09/16 12:24:57;;;;;;;4.30;1.40;;;25.20;36.30;;;;;;5073556;28;20515;-62
2022/09/16 12:27:37;;;;;;;2.90;1.70;;;24.40;37.00;;;;;;5073364;28;20447;-63
2022/09/16 12:30:11;;;;;;;3.30;1.90;;;23.50;38.30;;;;;;5073497;28;20852;-62
2022/09/16 12:32:49;;;;;;;4.80;2.10;;;22.80;40.80;;;;;;5073288;28;20514;-62
2022/09/16 12:35:20;;;;;;;3.63;1.67;;;22.10;42.10;;;;;;5073562;28;20508;-62
2022/09/16 12:37:49;;;;;;;3.17;1.90;;;21.50;43.70;;;;;;5073669;28;20420;-62
2022/09/16 12:40:22;;;;;;;3.43;1.40;;;21.00;44.40;;;;;;5072801;28;21005;-62
2022/09/16 12:43:19;;;;;;;2.53;1.50;;;20.50;46.10;;;;;;5073435;28;20770;-62
2022/09/16 12:46:04;;;;;;;3.20;1.60;;;;;;;;;;5073231;28;20486;-62
2022/09/16 12:48:49;;;;;;;2.97;1.73;;;;;;;;;;5072905;28;20432;-62
2022/09/16 12:51:34;;;;;;;2.60;1.67;;;;;;;;;;5062738;28;20486;-62
2022/09/16 12:54:19;;;;;;;4.93;1.83;;;;;;;;;;5072678;28;20487;-62
2022/09/16 12:57:07;;;;;;;2.40;1.67;;;;;;;;;;5062998;28;20489;-62
2022/09/16 12:59:45;;;;;;;2.83;1.50;;;;;;;;;;5072785;28;20467;-62
2022/09/16 13:02:16;;;;;;;3.47;1.87;;;;;;;;;;5072937;28;20776;-62
2022/09/16 13:04:45;;;;;;;3.27;2.00;;;20.00;46.60;;;;;;5072935;28;20530;-63
2022/09/16 13:07:23;;;;;;;3.17;2.10;;;18.40;57.60;;;;;;5073147;28;20528;-64
2022/09/16 13:09:59;;;;;;;2.90;2.00;;;18.10;56.70;;;;;;5072863;28;20517;-64
2022/09/16 13:12:28;;;;;;;2.90;2.10;;;18.00;57.00;;;;;;5072685;28;20823;-64
2022/09/16 13:14:58;;;;;;;2.80;1.77;;;17.90;57.90;;;;;;5073016;28;20461;-64
2022/09/16 13:17:30;;;;;;;3.90;1.93;;;17.80;58.80;;;;;;5072914;28;20570;-65
2022/09/16 13:20:05;;;;;;;3.27;2.13;;;17.70;59.90;;;;;;5072838;28;20425;-64
2022/09/16 13:22:38;;;;;;;2.93;1.73;;;17.70;60.80;;;;;;5073023;28;20434;-64
2022/09/16 13:25:11;;;;;;;2.63;1.73;;;17.60;62.40;;;;;;5072572;28;20444;-64
2022/09/16 13:27:41;;;;;;;2.90;1.90;;;17.50;61.60;;;;;;5072905;28;20810;-64
2022/09/16 13:30:25;;;;;;;3.07;1.90;;;17.40;63.10;;;;;;5072780;28;20513;-64